Time;durP1;ratioP1;P1;durP2;ratioP2;P2;SDS_P1;SDS_P2;PMS_P1;PMS_P2;Temp;Humidity;BMP_temperature;BMP_pressure;BME280_temperature;BME280_humidity;BME280_pressure;Samples;Min_cycle;Max_cycle;Signal;HPM_P1;HPM_P2
2022/03/22 00:00:49;;;;;;;20.73;14.93;;;11.70;92.40;;;;;;5054672;28;20509;-41
2022/03/22 00:03:15;;;;;;;18.40;15.37;;;11.70;92.20;;;;;;5075494;28;20955;-40
2022/03/22 00:05:42;;;;;;;17.60;14.33;;;11.80;91.80;;;;;;5068131;28;20446;-42
2022/03/22 00:08:09;;;;;;;20.57;15.90;;;11.80;91.90;;;;;;5062162;28;20417;-41
2022/03/22 00:10:36;;;;;;;18.53;14.23;;;11.80;91.80;;;;;;5053899;28;20427;-44
2022/03/22 00:13:05;;;;;;;17.40;14.70;;;11.80;91.50;;;;;;5053864;28;20426;-41
2022/03/22 00:15:30;;;;;;;18.43;14.67;;;11.80;91.50;;;;;;5053894;28;20586;-40
2022/03/22 00:17:56;;;;;;;17.93;14.73;;;11.80;91.20;;;;;;5048758;28;20507;-41
2022/03/22 00:20:23;;;;;;;22.93;15.50;;;11.90;91.30;;;;;;5050388;28;20293;-42
2022/03/22 00:22:49;;;;;;;25.20;14.87;;;11.80;90.90;;;;;;5065505;28;20177;-41
2022/03/22 00:25:16;;;;;;;21.80;15.27;;;11.70;90.90;;;;;;5052952;28;20495;-41
2022/03/22 00:27:52;;;;;;;19.40;15.40;;;11.70;91.00;;;;;;5051977;28;20784;-40
2022/03/22 00:30:29;;;;;;;19.63;14.80;;;11.70;91.00;;;;;;5051430;28;20515;-44
2022/03/22 00:32:58;;;;;;;17.47;14.30;;;11.80;90.80;;;;;;5048953;28;20447;-42
2022/03/22 00:35:26;;;;;;;20.40;15.13;;;11.90;90.90;;;;;;5050359;28;20449;-42
2022/03/22 00:37:53;;;;;;;19.00;15.07;;;11.80;90.70;;;;;;5066324;28;20564;-41
2022/03/22 00:40:20;;;;;;;18.73;14.60;;;11.60;90.30;;;;;;5049034;28;20495;-40
2022/03/22 00:42:48;;;;;;;20.83;14.53;;;11.50;90.50;;;;;;5050477;28;20438;-41
2022/03/22 00:45:18;;;;;;;20.17;16.13;;;11.60;90.50;;;;;;5048092;28;20512;-41
2022/03/22 00:47:49;;;;;;;17.90;14.63;;;11.40;90.30;;;;;;5048777;28;20751;-40
2022/03/22 00:50:16;;;;;;;19.60;14.37;;;11.50;91.00;;;;;;5055688;28;20486;-42
2022/03/22 00:52:43;;;;;;;19.10;14.73;;;11.40;91.40;;;;;;5066424;28;20421;-42
2022/03/22 00:55:12;;;;;;;19.53;14.60;;;11.30;91.50;;;;;;5055053;28;20429;-44
2022/03/22 00:57:38;;;;;;;19.63;15.00;;;11.20;92.60;;;;;;5048330;28;20971;-41
2022/03/22 01:00:08;;;;;;;16.07;13.73;;;11.10;92.80;;;;;;5055656;28;20451;-44
2022/03/22 01:02:35;;;;;;;18.97;15.40;;;11.00;92.90;;;;;;5068345;28;20415;-41
2022/03/22 01:05:14;;;;;;;17.53;14.73;;;11.10;91.80;;;;;;5065857;28;20502;-41
2022/03/22 01:07:45;;;;;;;18.17;14.73;;;11.20;91.50;;;;;;5059684;28;20416;-42
2022/03/22 01:10:12;;;;;;;15.67;13.67;;;11.20;90.60;;;;;;5057499;28;21087;-43
2022/03/22 01:12:40;;;;;;;19.50;14.37;;;11.50;90.30;;;;;;5048223;28;20427;-42
2022/03/22 01:15:15;;;;;;;19.90;15.97;;;11.40;89.20;;;;;;5054219;28;20432;-41
2022/03/22 01:17:45;;;;;;;19.03;14.50;;;11.70;89.30;;;;;;5047976;28;20884;-41
2022/03/22 01:20:12;;;;;;;17.53;14.67;;;11.60;88.20;;;;;;5053462;28;20527;-40
2022/03/22 01:22:44;;;;;;;17.37;15.40;;;11.60;87.90;;;;;;5074706;28;20414;-42
2022/03/22 01:25:13;;;;;;;18.87;14.60;;;11.70;88.50;;;;;;5055034;28;20419;-43
2022/03/22 01:27:40;;;;;;;19.23;14.83;;;11.60;87.40;;;;;;5047484;28;20535;-41
2022/03/22 01:30:08;;;;;;;17.47;14.17;;;11.50;88.10;;;;;;5050122;28;20424;-41
2022/03/22 01:32:34;;;;;;;17.57;14.00;;;11.50;87.60;;;;;;5047717;28;20424;-41
2022/03/22 01:35:01;;;;;;;18.03;13.50;;;11.50;87.30;;;;;;5048953;28;20716;-41
2022/03/22 01:37:27;;;;;;;20.30;15.03;;;11.60;86.90;;;;;;5065488;28;20433;-41
2022/03/22 01:39:53;;;;;;;18.20;14.00;;;11.50;86.90;;;;;;5053983;28;20471;-41
2022/03/22 01:42:19;;;;;;;16.27;13.40;;;11.40;86.60;;;;;;5047357;28;20185;-41
2022/03/22 01:44:44;;;;;;;18.57;14.33;;;11.50;85.80;;;;;;5057805;28;20275;-45
2022/03/22 01:47:10;;;;;;;21.87;13.57;;;11.50;86.00;;;;;;5046414;28;20799;-42
2022/03/22 01:49:36;;;;;;;19.47;12.80;;;11.50;86.10;;;;;;5047053;28;20197;-44
2022/03/22 01:52:04;;;;;;;19.53;14.47;;;11.50;85.80;;;;;;5064289;28;20414;-40
2022/03/22 01:54:30;;;;;;;15.80;12.80;;;11.60;85.50;;;;;;5070185;28;20263;-41
2022/03/22 01:56:55;;;;;;;17.70;14.40;;;11.80;85.30;;;;;;5046029;28;20990;-40
2022/03/22 01:59:21;;;;;;;18.57;13.13;;;11.90;85.50;;;;;;5054020;28;20194;-40
2022/03/22 02:07:20;;;;;;;17.47;13.17;;;11.40;84.50;;;;;;5065306;28;20769;-43
2022/03/22 02:09:45;;;;;;;18.70;13.57;;;11.40;85.10;;;;;;5066455;28;20454;-40
2022/03/22 02:12:11;;;;;;;17.73;13.60;;;11.40;85.20;;;;;;5052332;28;20432;-40
2022/03/22 02:14:37;;;;;;;16.20;12.90;;;11.40;84.70;;;;;;5050064;28;20182;-46
2022/03/22 02:17:08;;;;;;;16.20;12.70;;;11.50;84.50;;;;;;5047300;28;20671;-40
2022/03/22 02:19:37;;;;;;;17.77;13.40;;;11.40;84.60;;;;;;5046456;28;20427;-43
2022/03/22 02:22:07;;;;;;;16.37;12.83;;;11.40;83.90;;;;;;5065413;28;20467;-41
2022/03/22 02:24:33;;;;;;;15.40;13.17;;;11.40;82.20;;;;;;5056686;28;20525;-41
2022/03/22 02:26:59;;;;;;;13.20;11.50;;;11.60;83.50;;;;;;5049077;28;20511;-44
2022/03/22 02:29:24;;;;;;;18.30;12.57;;;11.40;83.10;;;;;;5055327;28;20213;-41
2022/03/22 02:31:53;;;;;;;16.40;13.07;;;11.40;83.40;;;;;;5049472;28;20456;-41
2022/03/22 02:34:19;;;;;;;17.03;13.87;;;11.30;82.90;;;;;;5046678;28;20273;-41
2022/03/22 02:36:45;;;;;;;18.80;12.90;;;11.40;82.70;;;;;;5047619;28;20943;-43
2022/03/22 02:39:10;;;;;;;16.03;12.80;;;11.30;83.30;;;;;;5068278;28;20192;-41
2022/03/22 02:41:36;;;;;;;15.60;13.20;;;11.30;83.50;;;;;;5050760;28;20478;-42
2022/03/22 02:44:02;;;;;;;13.57;12.03;;;11.30;82.60;;;;;;5055063;28;20552;-41
2022/03/22 02:46:27;;;;;;;15.83;12.30;;;11.50;82.70;;;;;;5054158;28;20591;-41
2022/03/22 02:48:54;;;;;;;15.90;12.17;;;11.50;82.10;;;;;;5050987;28;20234;-42
2022/03/22 02:51:20;;;;;;;18.37;12.90;;;11.30;81.80;;;;;;5052306;28;20244;-41
2022/03/22 02:53:46;;;;;;;20.10;12.10;;;11.30;81.90;;;;;;5068359;28;21026;-40
2022/03/22 02:56:12;;;;;;;17.67;13.37;;;11.20;81.50;;;;;;5053022;28;20424;-40
2022/03/22 02:58:39;;;;;;;17.13;12.40;;;11.20;81.50;;;;;;5033156;28;20443;-42
2022/03/22 03:01:04;;;;;;;17.27;11.93;;;11.50;81.00;;;;;;5052484;28;20470;-43
2022/03/22 03:03:30;;;;;;;15.77;12.90;;;11.10;80.30;;;;;;5050394;28;20412;-44
2022/03/22 03:05:56;;;;;;;15.83;12.47;;;11.30;80.40;;;;;;5050162;28;20239;-42
2022/03/22 03:08:26;;;;;;;17.53;12.97;;;11.30;79.40;;;;;;5069305;28;20679;-40
2022/03/22 03:10:52;;;;;;;17.23;12.67;;;11.20;79.40;;;;;;5064396;28;20208;-41
2022/03/22 03:13:18;;;;;;;15.63;12.20;;;11.20;79.50;;;;;;5049017;28;20424;-41
2022/03/22 03:15:44;;;;;;;17.20;11.87;;;11.20;78.80;;;;;;5063037;28;20529;-42
2022/03/22 03:18:10;;;;;;;16.17;12.03;;;11.40;78.90;;;;;;5050497;28;20272;-41
2022/03/22 03:20:36;;;;;;;16.27;12.33;;;11.40;78.80;;;;;;5047743;28;20558;-42
2022/03/22 03:23:02;;;;;;;14.00;12.27;;;11.20;79.10;;;;;;5067992;28;20551;-41
2022/03/22 03:25:28;;;;;;;16.20;11.27;;;11.20;79.30;;;;;;5066909;28;20426;-41
2022/03/22 03:27:54;;;;;;;14.80;12.53;;;11.10;79.60;;;;;;5050084;28;20193;-41
2022/03/22 03:30:19;;;;;;;13.70;12.03;;;11.30;79.00;;;;;;5058216;28;20489;-42
2022/03/22 03:32:45;;;;;;;16.07;12.90;;;11.30;79.90;;;;;;5050066;28;20470;-41
2022/03/22 03:35:11;;;;;;;14.43;12.03;;;11.10;79.00;;;;;;5049720;28;20773;-45
2022/03/22 03:37:37;;;;;;;15.87;13.20;;;11.10;78.60;;;;;;5072797;28;20196;-43
2022/03/22 03:40:06;;;;;;;12.03;10.67;;;11.30;78.60;;;;;;5065494;28;20274;-40
2022/03/22 03:42:32;;;;;;;13.50;11.33;;;11.20;78.10;;;;;;5059607;28;20963;-40
2022/03/22 03:47:42;;;;;;;17.40;11.97;;;11.10;77.70;;;;;;5049731;28;20991;-42
2022/03/22 03:50:08;;;;;;;21.60;11.73;;;11.20;77.00;;;;;;5049179;28;20424;-41
2022/03/22 03:52:37;;;;;;;16.17;12.13;;;11.00;77.60;;;;;;5066737;28;20283;-42
2022/03/22 03:55:05;;;;;;;15.37;12.80;;;11.10;76.80;;;;;;5069163;28;20439;-41
2022/03/22 03:57:32;;;;;;;17.67;13.20;;;11.40;77.90;;;;;;5049275;28;20505;-41
2022/03/22 03:59:58;;;;;;;15.40;12.80;;;11.00;75.90;;;;;;5055341;28;20463;-41
2022/03/22 04:02:24;;;;;;;14.90;11.70;;;11.20;76.40;;;;;;5055774;28;20439;-42
2022/03/22 04:04:53;;;;;;;17.50;12.10;;;11.20;75.80;;;;;;5049541;28;20512;-40
2022/03/22 04:07:23;;;;;;;16.03;13.23;;;11.30;76.50;;;;;;5052726;28;20445;-40
2022/03/22 04:09:49;;;;;;;14.53;11.20;;;11.10;76.30;;;;;;5078516;28;20414;-41
2022/03/22 04:12:15;;;;;;;15.30;12.17;;;11.00;75.50;;;;;;5051478;28;20511;-41
2022/03/22 04:14:41;;;;;;;16.00;11.70;;;10.90;74.70;;;;;;5053097;28;20498;-40
2022/03/22 04:17:08;;;;;;;15.80;11.53;;;11.10;75.50;;;;;;5054159;28;20444;-42
2022/03/22 04:19:35;;;;;;;15.70;12.07;;;11.10;75.20;;;;;;5048686;28;20219;-41
2022/03/22 04:22:02;;;;;;;15.47;12.07;;;11.00;75.00;;;;;;5052895;28;20443;-42
2022/03/22 04:24:28;;;;;;;13.53;11.47;;;11.10;74.20;;;;;;5080094;28;20431;-43
2022/03/22 04:26:55;;;;;;;14.90;11.47;;;11.00;74.20;;;;;;5069945;28;20521;-40
2022/03/22 04:34:49;;;;;;;12.77;10.70;;;11.10;76.40;;;;;;5048636;28;20789;-44
2022/03/22 04:37:16;;;;;;;13.90;11.03;;;10.80;76.00;;;;;;5053006;28;20435;-40
2022/03/22 04:39:44;;;;;;;15.37;12.67;;;11.00;76.30;;;;;;5067749;28;20197;-40
2022/03/22 04:42:10;;;;;;;13.77;11.20;;;10.90;76.40;;;;;;5052904;28;20443;-41
2022/03/22 04:44:35;;;;;;;13.83;11.30;;;10.70;78.80;;;;;;5049014;28;20428;-41
2022/03/22 04:47:02;;;;;;;12.60;10.70;;;10.40;79.90;;;;;;5049089;28;20424;-42
2022/03/22 04:49:29;;;;;;;15.20;12.10;;;10.40;81.50;;;;;;5048894;28;20276;-41
2022/03/22 04:57:25;;;;;;;12.87;10.87;;;10.50;75.70;;;;;;5047604;28;20513;-41
2022/03/22 04:59:51;;;;;;;13.70;11.63;;;10.50;79.40;;;;;;5049894;28;20428;-44
2022/03/22 05:02:16;;;;;;;15.97;11.20;;;10.50;80.30;;;;;;5055388;28;20483;-43
2022/03/22 05:04:43;;;;;;;14.17;11.27;;;10.20;80.90;;;;;;5048511;28;20185;-44
2022/03/22 05:07:09;;;;;;;14.10;11.50;;;10.20;81.90;;;;;;5050478;28;20189;-40
2022/03/22 05:09:35;;;;;;;12.00;10.73;;;10.00;81.80;;;;;;5071214;28;20418;-42
2022/03/22 05:12:02;;;;;;;13.43;10.83;;;10.10;82.90;;;;;;5056471;28;20428;-44
2022/03/22 05:14:28;;;;;;;16.03;12.20;;;10.00;83.90;;;;;;5048264;28;20997;-40
2022/03/22 05:16:58;;;;;;;11.70;10.10;;;9.90;84.70;;;;;;5052599;28;20432;-42
2022/03/22 05:19:24;;;;;;;14.90;11.30;;;10.10;80.40;;;;;;5046904;28;20428;-41
2022/03/22 05:21:50;;;;;;;15.67;11.67;;;10.00;83.20;;;;;;5048387;28;20990;-41
2022/03/22 05:24:16;;;;;;;13.17;11.80;;;10.30;83.30;;;;;;5073214;28;20573;-42
2022/03/22 05:26:42;;;;;;;12.30;11.00;;;10.20;80.30;;;;;;5059609;28;20228;-44
2022/03/22 05:29:07;;;;;;;14.07;11.37;;;10.20;79.00;;;;;;5048041;28;20469;-41
2022/03/22 05:31:34;;;;;;;14.30;12.03;;;10.30;75.80;;;;;;5047616;28;20193;-40
2022/03/22 05:34:00;;;;;;;12.03;10.70;;;10.40;75.40;;;;;;5048168;28;20697;-42
2022/03/22 05:36:26;;;;;;;13.73;12.33;;;10.40;75.00;;;;;;5047368;28;20432;-42
2022/03/22 05:38:52;;;;;;;14.17;11.80;;;10.60;76.50;;;;;;5050473;28;20443;-40
2022/03/22 05:41:18;;;;;;;16.17;11.93;;;10.50;73.00;;;;;;5071939;28;20483;-44
2022/03/22 05:43:44;;;;;;;12.00;10.60;;;10.50;73.50;;;;;;5047884;28;20188;-41
2022/03/22 05:46:11;;;;;;;14.57;11.30;;;10.70;75.70;;;;;;5056895;28;20427;-42
2022/03/22 05:48:40;;;;;;;14.50;11.20;;;10.50;73.30;;;;;;5047761;28;20425;-42
2022/03/22 05:51:06;;;;;;;12.70;10.93;;;10.50;73.60;;;;;;5047158;28;20812;-41
2022/03/22 05:53:32;;;;;;;13.27;11.00;;;10.40;74.00;;;;;;5061668;28;20426;-41
2022/03/22 05:55:57;;;;;;;13.90;11.90;;;10.60;72.00;;;;;;5068258;28;20426;-41
2022/03/22 05:58:23;;;;;;;12.73;10.20;;;10.60;72.30;;;;;;5047311;28;20431;-41
2022/03/22 06:00:49;;;;;;;12.53;10.27;;;10.80;71.70;;;;;;5052311;28;20282;-41
2022/03/22 06:03:15;;;;;;;15.03;12.37;;;10.70;70.40;;;;;;5047541;28;20855;-41
2022/03/22 06:05:42;;;;;;;13.60;11.73;;;10.70;69.60;;;;;;5047682;28;20272;-40
2022/03/22 06:08:08;;;;;;;14.40;11.87;;;11.00;69.70;;;;;;5055507;28;20493;-41
2022/03/22 06:10:34;;;;;;;12.33;10.93;;;10.80;69.80;;;;;;5078233;28;20447;-41
2022/03/22 06:13:00;;;;;;;15.23;11.83;;;10.80;69.60;;;;;;5047235;28;20749;-41
2022/03/22 06:15:30;;;;;;;13.93;11.20;;;10.80;69.00;;;;;;5047405;28;20458;-41
2022/03/22 06:18:04;;;;;;;12.97;11.43;;;11.10;68.60;;;;;;5047223;28;20474;-39
2022/03/22 06:20:35;;;;;;;13.67;12.20;;;11.00;68.40;;;;;;5046488;28;20550;-40
2022/03/22 06:23:03;;;;;;;16.50;11.90;;;11.10;68.50;;;;;;5050267;28;20443;-43
2022/03/22 06:25:29;;;;;;;11.47;10.23;;;11.00;68.10;;;;;;5070020;28;21002;-40
2022/03/22 06:27:56;;;;;;;14.87;11.10;;;11.40;68.10;;;;;;5045606;28;20532;-41
2022/03/22 06:30:23;;;;;;;12.20;10.90;;;11.20;67.90;;;;;;5047485;28;20796;-42
2022/03/22 06:32:57;;;;;;;13.57;10.70;;;11.30;66.80;;;;;;5056328;28;20495;-42
2022/03/22 06:35:31;;;;;;;14.00;11.70;;;11.50;67.20;;;;;;5046943;28;20513;-41
2022/03/22 06:37:59;;;;;;;16.40;11.50;;;11.40;67.20;;;;;;5046691;28;20756;-40
2022/03/22 06:40:29;;;;;;;15.60;12.50;;;11.60;66.90;;;;;;5054465;28;20710;-41
2022/03/22 06:42:57;;;;;;;14.90;13.00;;;11.50;66.40;;;;;;5057300;28;20958;-43
2022/03/22 06:45:23;;;;;;;18.63;12.53;;;11.60;66.90;;;;;;5047027;28;20416;-42
2022/03/22 06:47:49;;;;;;;14.40;11.77;;;11.60;68.80;;;;;;5061741;28;20451;-41
2022/03/22 06:50:16;;;;;;;13.00;10.87;;;11.60;67.30;;;;;;5066281;28;20920;-40
2022/03/22 06:52:42;;;;;;;15.00;11.37;;;11.70;67.10;;;;;;5065509;28;20302;-42
2022/03/22 06:55:09;;;;;;;13.57;10.80;;;11.70;66.40;;;;;;5053527;28;20436;-42
2022/03/22 06:57:36;;;;;;;16.23;12.07;;;11.80;65.90;;;;;;5062238;28;20733;-43
2022/03/22 07:00:05;;;;;;;14.53;12.03;;;11.70;65.60;;;;;;5046032;28;20460;-40
2022/03/22 07:02:31;;;;;;;14.17;10.83;;;11.80;65.70;;;;;;5048366;28;20432;-44
2022/03/22 07:04:57;;;;;;;13.07;11.23;;;11.90;65.50;;;;;;5046881;28;20423;-41
2022/03/22 07:07:23;;;;;;;14.93;11.20;;;11.90;66.50;;;;;;5045066;28;20790;-40
2022/03/22 07:09:49;;;;;;;14.83;12.40;;;11.90;65.30;;;;;;5057526;28;20186;-41
2022/03/22 07:12:14;;;;;;;12.60;10.53;;;12.00;64.70;;;;;;5061478;28;20202;-43
2022/03/22 07:14:43;;;;;;;14.97;12.33;;;12.10;65.50;;;;;;5046592;28;21019;-43
2022/03/22 07:17:10;;;;;;;14.73;11.83;;;12.30;65.50;;;;;;5057843;28;20243;-42
2022/03/22 07:19:37;;;;;;;15.47;12.17;;;12.20;63.10;;;;;;5046171;28;20452;-41
2022/03/22 07:22:03;;;;;;;13.20;11.80;;;12.30;63.70;;;;;;5047400;28;20509;-41
2022/03/22 07:24:29;;;;;;;13.90;12.50;;;12.40;63.80;;;;;;5061825;28;20620;-41
2022/03/22 07:26:54;;;;;;;12.30;11.00;;;12.50;63.00;;;;;;5041084;28;20542;-42
2022/03/22 07:29:21;;;;;;;13.70;11.00;;;12.70;63.60;;;;;;5050493;28;20197;-44
2022/03/22 07:31:46;;;;;;;12.90;10.57;;;12.80;62.20;;;;;;5054508;28;20611;-42
2022/03/22 07:34:15;;;;;;;15.60;11.87;;;12.90;62.10;;;;;;5050664;28;20424;-40
2022/03/22 07:36:46;;;;;;;15.27;12.17;;;13.10;62.30;;;;;;5049787;28;20766;-41
2022/03/22 07:39:13;;;;;;;17.40;12.80;;;13.20;61.20;;;;;;5059387;28;20438;-41
2022/03/22 07:41:43;;;;;;;16.60;12.03;;;13.30;60.10;;;;;;5070734;28;20835;-41
2022/03/22 07:44:12;;;;;;;14.17;11.53;;;13.40;59.90;;;;;;5050210;28;20424;-42
2022/03/22 07:46:39;;;;;;;14.40;12.90;;;13.50;60.40;;;;;;5052818;28;20432;-42
2022/03/22 07:54:33;;;;;;;15.57;11.43;;;13.80;59.50;;;;;;5063768;28;20796;-40
2022/03/22 07:56:59;;;;;;;14.37;11.00;;;13.90;58.70;;;;;;5078124;28;20443;-40
2022/03/22 07:59:27;;;;;;;14.70;11.33;;;14.00;58.30;;;;;;5049954;28;20431;-41
2022/03/22 08:01:53;;;;;;;16.67;12.30;;;14.10;58.30;;;;;;5057338;28;20205;-40
2022/03/22 08:04:19;;;;;;;13.40;11.90;;;14.20;57.80;;;;;;5052378;28;20490;-41
2022/03/22 08:06:45;;;;;;;13.07;10.90;;;14.30;58.70;;;;;;5049518;28;20574;-40
2022/03/22 08:09:11;;;;;;;15.37;13.23;;;14.50;59.30;;;;;;5061775;28;20436;-41
2022/03/22 08:11:39;;;;;;;18.30;12.80;;;14.60;58.10;;;;;;5073499;28;20455;-40
2022/03/22 08:14:05;;;;;;;13.13;11.17;;;14.60;56.40;;;;;;5049420;28;20778;-42
2022/03/22 08:16:30;;;;;;;13.30;11.50;;;14.60;57.20;;;;;;5054447;28;20427;-42
2022/03/22 08:18:56;;;;;;;12.67;10.60;;;14.60;55.90;;;;;;5052620;28;20799;-41
2022/03/22 08:21:22;;;;;;;13.20;11.90;;;14.70;56.70;;;;;;5048857;28;20209;-40
2022/03/22 08:23:47;;;;;;;13.00;10.67;;;14.70;55.80;;;;;;5050293;28;20574;-41
2022/03/22 08:26:16;;;;;;;13.37;11.80;;;14.80;56.70;;;;;;5067730;28;20190;-41
2022/03/22 08:28:42;;;;;;;15.00;11.23;;;14.90;57.40;;;;;;5066737;28;20209;-43
2022/03/22 08:31:11;;;;;;;13.70;12.00;;;15.00;55.90;;;;;;5049832;28;20439;-42
2022/03/22 08:33:37;;;;;;;12.53;11.23;;;15.10;57.40;;;;;;5050985;28;20482;-42
2022/03/22 08:36:04;;;;;;;13.83;11.00;;;15.20;56.50;;;;;;5049193;28;20806;-40
2022/03/22 08:38:29;;;;;;;15.17;11.40;;;15.20;56.60;;;;;;5050348;28;20779;-41
2022/03/22 08:40:58;;;;;;;11.63;10.43;;;15.30;57.90;;;;;;5080029;28;20466;-40
2022/03/22 08:43:28;;;;;;;12.73;11.33;;;15.50;57.20;;;;;;5055898;28;20560;-42
2022/03/22 08:45:54;;;;;;;13.30;11.40;;;15.50;56.40;;;;;;5049425;28;20482;-43
2022/03/22 08:48:21;;;;;;;14.73;11.33;;;15.60;56.90;;;;;;5061251;28;20420;-40
2022/03/22 08:50:49;;;;;;;13.67;10.93;;;15.60;54.60;;;;;;5048467;28;20424;-43
2022/03/22 08:53:17;;;;;;;15.47;12.97;;;15.70;55.10;;;;;;5048976;28;20438;-41
2022/03/22 08:55:49;;;;;;;12.73;11.43;;;15.80;54.90;;;;;;5064233;28;20423;-42
2022/03/22 08:58:16;;;;;;;12.43;11.10;;;15.90;55.50;;;;;;5065475;28;20488;-43
2022/03/22 09:00:42;;;;;;;13.70;11.40;;;15.90;56.60;;;;;;5046202;28;20472;-44
2022/03/22 09:03:10;;;;;;;15.23;12.60;;;16.00;55.30;;;;;;5056486;28;20428;-41
2022/03/22 09:08:21;;;;;;;12.40;11.03;;;16.20;54.00;;;;;;5048054;28;20456;-44
2022/03/22 09:10:49;;;;;;;13.57;11.50;;;16.30;54.50;;;;;;5064579;28;20467;-41
2022/03/22 09:13:16;;;;;;;11.87;10.50;;;16.40;53.20;;;;;;5075577;28;20197;-43
2022/03/22 09:15:44;;;;;;;12.83;11.30;;;16.50;53.30;;;;;;5051364;28;20526;-45
2022/03/22 09:18:16;;;;;;;13.07;11.43;;;16.50;53.10;;;;;;5051332;28;20440;-41
2022/03/22 09:20:46;;;;;;;12.90;11.23;;;16.70;54.00;;;;;;5047179;28;20518;-42
2022/03/22 09:23:12;;;;;;;12.93;10.43;;;16.90;53.80;;;;;;5049435;28;20435;-42
2022/03/22 09:25:39;;;;;;;12.90;11.13;;;17.00;53.10;;;;;;5058710;28;20796;-41
2022/03/22 09:28:06;;;;;;;12.63;11.33;;;17.10;52.40;;;;;;5066783;28;20768;-41
2022/03/22 09:30:34;;;;;;;12.60;11.30;;;17.20;51.60;;;;;;5047266;28;20470;-43
2022/03/22 09:33:02;;;;;;;13.40;11.73;;;17.40;54.00;;;;;;5048462;28;20567;-42
2022/03/22 09:35:28;;;;;;;12.63;11.30;;;17.50;52.10;;;;;;5047544;28;20451;-41
2022/03/22 09:37:54;;;;;;;12.50;11.20;;;17.60;51.90;;;;;;5047754;28;20439;-42
2022/03/22 09:40:22;;;;;;;13.00;11.43;;;17.80;52.10;;;;;;5053499;28;20466;-44
2022/03/22 09:42:48;;;;;;;13.20;11.43;;;17.90;52.00;;;;;;5059621;28;20421;-42
2022/03/22 09:45:21;;;;;;;14.47;11.40;;;18.00;52.70;;;;;;5047842;28;20460;-43
2022/03/22 09:47:48;;;;;;;14.53;10.83;;;18.30;53.80;;;;;;5056945;28;20427;-43
2022/03/22 09:50:16;;;;;;;16.30;11.73;;;18.30;51.70;;;;;;5047466;28;20432;-42
2022/03/22 09:52:42;;;;;;;16.53;11.97;;;18.60;53.50;;;;;;5046792;28;20462;-41
2022/03/22 09:55:10;;;;;;;13.70;11.53;;;18.80;52.70;;;;;;5050896;28;20467;-41
2022/03/22 09:57:36;;;;;;;14.50;12.33;;;19.10;52.10;;;;;;5069334;28;20446;-43
2022/03/22 10:00:07;;;;;;;15.50;12.17;;;19.30;53.90;;;;;;5046210;28;20444;-42
2022/03/22 10:02:35;;;;;;;12.90;10.80;;;19.40;52.90;;;;;;5051823;28;20423;-46
2022/03/22 10:05:02;;;;;;;14.40;11.00;;;19.60;53.40;;;;;;5047107;28;20425;-42
2022/03/22 10:07:27;;;;;;;13.10;11.37;;;19.80;51.00;;;;;;5046442;28;20427;-47
2022/03/22 10:09:59;;;;;;;15.50;11.43;;;20.00;51.10;;;;;;5052066;28;20450;-42
2022/03/22 10:12:32;;;;;;;16.73;11.17;;;20.10;49.00;;;;;;5064753;28;20595;-41
2022/03/22 10:15:08;;;;;;;15.03;11.63;;;20.00;47.80;;;;;;5047133;28;20415;-41
2022/03/22 10:17:34;;;;;;;16.20;12.60;;;20.00;51.60;;;;;;5048404;28;20949;-42
2022/03/22 10:20:00;;;;;;;12.17;10.60;;;20.10;51.20;;;;;;5046525;28;20934;-41
2022/03/22 10:22:27;;;;;;;16.03;11.43;;;20.10;47.00;;;;;;5049027;28;20425;-42
2022/03/22 10:24:57;;;;;;;13.27;11.40;;;19.90;47.30;;;;;;5057815;28;20443;-41
2022/03/22 10:27:29;;;;;;;13.80;11.70;;;19.80;49.10;;;;;;5069934;28;20758;-43
2022/03/22 10:29:56;;;;;;;14.00;11.83;;;19.80;47.10;;;;;;5048289;28;20428;-41
2022/03/22 10:32:36;;;;;;;15.37;13.03;;;19.70;48.30;;;;;;5054021;28;20782;-41
2022/03/22 10:35:16;;;;;;;15.03;12.57;;;19.70;47.20;;;;;;5050534;28;20416;-41
2022/03/22 10:37:53;;;;;;;15.77;13.37;;;19.80;49.40;;;;;;5046867;28;20477;-42
2022/03/22 10:40:40;;;;;;;14.10;12.70;;;19.90;48.80;;;;;;5059573;28;20477;-46
2022/03/22 10:43:10;;;;;;;16.13;13.50;;;20.10;50.50;;;;;;5065246;28;20416;-46
2022/03/22 10:45:48;;;;;;;16.27;13.70;;;20.30;48.70;;;;;;5047391;28;20424;-41
2022/03/22 10:48:26;;;;;;;16.43;13.33;;;20.20;47.20;;;;;;5054484;28;20458;-42
2022/03/22 10:50:53;;;;;;;22.80;13.67;;;20.20;47.20;;;;;;5046484;28;20428;-41
2022/03/22 10:53:21;;;;;;;14.47;12.20;;;20.20;46.90;;;;;;5047039;28;20428;-41
2022/03/22 10:55:47;;;;;;;14.00;12.50;;;20.20;46.60;;;;;;5062317;28;20594;-42
2022/03/22 10:58:15;;;;;;;13.70;11.57;;;20.20;46.60;;;;;;5061274;28;20837;-41
2022/03/22 11:00:45;;;;;;;14.27;12.07;;;20.20;45.80;;;;;;5055059;28;20510;-46
2022/03/22 11:03:12;;;;;;;14.63;11.07;;;20.20;46.50;;;;;;5054300;28;20459;-41
2022/03/22 11:05:40;;;;;;;15.90;11.20;;;20.30;46.90;;;;;;5050912;28;20841;-41
2022/03/22 11:08:06;;;;;;;12.30;10.83;;;20.30;45.50;;;;;;5049440;28;20420;-41
2022/03/22 11:10:32;;;;;;;16.20;12.07;;;20.40;46.70;;;;;;5059147;28;20441;-41
2022/03/22 11:12:59;;;;;;;13.27;10.20;;;20.30;45.10;;;;;;5069264;28;20434;-42
2022/03/22 11:15:28;;;;;;;12.10;10.90;;;20.30;45.20;;;;;;5049120;28;20186;-42
2022/03/22 11:17:55;;;;;;;11.80;10.67;;;20.30;47.40;;;;;;5056118;28;20423;-42
2022/03/22 11:20:23;;;;;;;11.87;9.53;;;20.30;46.30;;;;;;5054488;28;21064;-43
2022/03/22 11:22:54;;;;;;;13.17;10.67;;;20.40;46.40;;;;;;5052050;28;20435;-44
2022/03/22 11:25:34;;;;;;;12.57;9.47;;;20.40;43.30;;;;;;5052710;28;20545;-41
2022/03/22 11:28:12;;;;;;;10.73;9.17;;;20.40;43.80;;;;;;5079632;28;20418;-41
2022/03/22 11:30:39;;;;;;;9.93;8.50;;;20.50;43.70;;;;;;5049563;28;20432;-43
2022/03/22 11:35:56;;;;;;;11.00;7.60;;;20.30;42.50;;;;;;5050169;28;20430;-42
2022/03/22 11:38:55;;;;;;;12.40;7.13;;;20.40;45.30;;;;;;5050103;28;20517;-41
2022/03/22 11:44:39;;;;;;;13.37;9.40;;;20.50;42.40;;;;;;5035855;28;20459;-44
2022/03/22 11:47:20;;;;;;;13.70;8.60;;;20.40;42.00;;;;;;5050269;28;20826;-41
2022/03/22 11:49:51;;;;;;;11.43;9.20;;;20.50;42.90;;;;;;5052980;28;20433;-41
2022/03/22 11:52:18;;;;;;;10.80;8.63;;;20.60;44.80;;;;;;5050030;28;20426;-41
2022/03/22 11:55:04;;;;;;;13.13;10.20;;;20.60;44.50;;;;;;5051610;28;20494;-44
2022/03/22 11:57:43;;;;;;;12.70;8.60;;;20.70;46.00;;;;;;5060306;28;20620;-41
2022/03/22 12:00:11;;;;;;;10.20;7.17;;;20.60;43.60;;;;;;5053215;28;20438;-43
2022/03/22 12:02:38;;;;;;;11.43;7.37;;;20.60;44.50;;;;;;5050674;28;20420;-42
2022/03/22 12:05:04;;;;;;;11.33;8.70;;;20.60;42.50;;;;;;5061245;28;20432;-44
2022/03/22 12:07:36;;;;;;;12.67;8.43;;;20.60;44.10;;;;;;5049250;28;20424;-42
2022/03/22 12:10:16;;;;;;;11.67;8.73;;;20.70;45.60;;;;;;5058996;28;20423;-41
2022/03/22 12:12:49;;;;;;;13.60;8.97;;;20.80;45.20;;;;;;5052460;28;21026;-41
2022/03/22 12:15:21;;;;;;;11.40;8.37;;;20.90;44.30;;;;;;5054957;28;20417;-41
2022/03/22 12:17:47;;;;;;;12.03;8.70;;;20.80;42.10;;;;;;5056314;28;20964;-41
2022/03/22 12:20:21;;;;;;;9.43;7.43;;;20.80;42.20;;;;;;5054742;28;20464;-43
2022/03/22 12:23:03;;;;;;;12.97;8.57;;;20.80;41.80;;;;;;5050283;28;20430;-43
2022/03/22 12:25:31;;;;;;;13.33;8.10;;;20.70;42.00;;;;;;5050926;28;20447;-41
2022/03/22 12:27:59;;;;;;;12.50;9.27;;;20.70;42.80;;;;;;5074654;28;20426;-42
2022/03/22 12:30:30;;;;;;;10.83;7.20;;;20.70;44.60;;;;;;5059924;28;20416;-41
2022/03/22 12:32:58;;;;;;;10.97;7.17;;;20.70;43.30;;;;;;5050776;28;20424;-41
2022/03/22 12:35:24;;;;;;;15.83;8.73;;;20.80;43.40;;;;;;5050571;28;20492;-42
2022/03/22 12:37:52;;;;;;;9.00;8.10;;;20.90;42.30;;;;;;5049390;28;20439;-44
2022/03/22 12:40:19;;;;;;;11.20;7.97;;;20.90;41.20;;;;;;5054536;28;20478;-41
2022/03/22 12:42:46;;;;;;;10.37;7.23;;;20.80;42.80;;;;;;5071438;28;20418;-40
2022/03/22 12:45:12;;;;;;;12.67;7.60;;;20.70;41.90;;;;;;5059123;28;20954;-41
2022/03/22 12:47:40;;;;;;;12.47;8.70;;;20.80;42.60;;;;;;5049078;28;20526;-42
2022/03/22 12:50:08;;;;;;;15.50;8.70;;;20.90;43.00;;;;;;5060880;28;21270;-43
2022/03/22 12:52:34;;;;;;;12.90;7.10;;;20.90;44.30;;;;;;5047565;28;20511;-42
2022/03/22 12:55:00;;;;;;;9.40;7.53;;;20.90;44.60;;;;;;5048359;28;20779;-42
2022/03/22 12:57:26;;;;;;;12.83;8.30;;;20.80;42.80;;;;;;5070547;28;20483;-41
2022/03/22 12:59:52;;;;;;;9.90;7.80;;;20.60;42.10;;;;;;5058787;28;20910;-41
2022/03/22 13:02:19;;;;;;;11.00;7.43;;;20.60;42.40;;;;;;5048468;28;20214;-43
2022/03/22 13:04:48;;;;;;;10.50;8.00;;;20.60;43.40;;;;;;5056143;28;20251;-44